sensor_id;sensor_type;location;lat;lon;timestamp;P1;durP1;ratioP1;P2;durP2;ratioP2
2956;SDS011;1488;51.548;7.222;2022-11-04T00:01:58;1.10;;;0.90;;
2956;SDS011;1488;51.548;7.222;2022-11-04T00:04:29;1.23;;;1.00;;
2956;SDS011;1488;51.548;7.222;2022-11-04T00:06:56;3.93;;;0.90;;
2956;SDS011;1488;51.548;7.222;2022-11-04T00:09:24;1.50;;;1.00;;
2956;SDS011;1488;51.548;7.222;2022-11-04T00:11:52;1.10;;;0.80;;
2956;SDS011;1488;51.548;7.222;2022-11-04T00:14:36;3.40;;;1.00;;
2956;SDS011;1488;51.548;7.222;2022-11-04T00:17:03;1.20;;;1.00;;
2956;SDS011;1488;51.548;7.222;2022-11-04T00:19:48;1.10;;;0.80;;
2956;SDS011;1488;51.548;7.222;2022-11-04T00:22:41;1.00;;;0.70;;
2956;SDS011;1488;51.548;7.222;2022-11-04T00:25:30;1.00;;;0.70;;
2956;SDS011;1488;51.548;7.222;2022-11-04T00:28:15;1.53;;;1.10;;
2956;SDS011;1488;51.548;7.222;2022-11-04T00:31:01;1.20;;;1.00;;
2956;SDS011;1488;51.548;7.222;2022-11-04T00:33:42;1.50;;;1.13;;
2956;SDS011;1488;51.548;7.222;2022-11-04T00:36:11;1.40;;;0.93;;
2956;SDS011;1488;51.548;7.222;2022-11-04T00:38:38;1.63;;;1.00;;
2956;SDS011;1488;51.548;7.222;2022-11-04T00:41:04;1.40;;;1.00;;
2956;SDS011;1488;51.548;7.222;2022-11-04T00:43:49;1.17;;;0.83;;
2956;SDS011;1488;51.548;7.222;2022-11-04T00:46:16;1.20;;;1.10;;
2956;SDS011;1488;51.548;7.222;2022-11-04T00:48:43;1.40;;;1.10;;
2956;SDS011;1488;51.548;7.222;2022-11-04T00:51:11;1.20;;;0.80;;
2956;SDS011;1488;51.548;7.222;2022-11-04T00:53:38;1.00;;;0.80;;
2956;SDS011;1488;51.548;7.222;2022-11-04T00:56:05;1.70;;;1.00;;
2956;SDS011;1488;51.548;7.222;2022-11-04T00:58:32;1.10;;;1.00;;
2956;SDS011;1488;51.548;7.222;2022-11-04T01:00:59;1.10;;;0.90;;
2956;SDS011;1488;51.548;7.222;2022-11-04T01:03:26;1.40;;;1.07;;
2956;SDS011;1488;51.548;7.222;2022-11-04T01:05:52;1.10;;;0.90;;
2956;SDS011;1488;51.548;7.222;2022-11-04T01:08:24;1.20;;;0.90;;
2956;SDS011;1488;51.548;7.222;2022-11-04T01:10:50;1.20;;;1.00;;
2956;SDS011;1488;51.548;7.222;2022-11-04T01:13:17;1.20;;;1.10;;
2956;SDS011;1488;51.548;7.222;2022-11-04T01:15:44;1.47;;;0.90;;
2956;SDS011;1488;51.548;7.222;2022-11-04T01:18:11;2.10;;;1.10;;
2956;SDS011;1488;51.548;7.222;2022-11-04T01:20:38;1.00;;;0.90;;
2956;SDS011;1488;51.548;7.222;2022-11-04T01:23:05;1.03;;;0.93;;
2956;SDS011;1488;51.548;7.222;2022-11-04T01:25:33;1.10;;;0.80;;
2956;SDS011;1488;51.548;7.222;2022-11-04T01:28:04;1.10;;;1.00;;
2956;SDS011;1488;51.548;7.222;2022-11-04T01:30:30;1.10;;;0.90;;
2956;SDS011;1488;51.548;7.222;2022-11-04T01:32:57;0.97;;;0.70;;
2956;SDS011;1488;51.548;7.222;2022-11-04T01:35:24;1.10;;;0.80;;
2956;SDS011;1488;51.548;7.222;2022-11-04T01:37:51;1.23;;;0.80;;
2956;SDS011;1488;51.548;7.222;2022-11-04T01:40:18;1.87;;;1.00;;
2956;SDS011;1488;51.548;7.222;2022-11-04T01:42:46;1.20;;;1.03;;
2956;SDS011;1488;51.548;7.222;2022-11-04T01:45:14;1.60;;;0.90;;
2956;SDS011;1488;51.548;7.222;2022-11-04T01:47:42;1.40;;;1.10;;
2956;SDS011;1488;51.548;7.222;2022-11-04T01:50:14;1.10;;;1.00;;
2956;SDS011;1488;51.548;7.222;2022-11-04T01:52:46;2.00;;;0.90;;
2956;SDS011;1488;51.548;7.222;2022-11-04T01:55:17;1.20;;;1.00;;
2956;SDS011;1488;51.548;7.222;2022-11-04T01:57:50;1.00;;;0.83;;
2956;SDS011;1488;51.548;7.222;2022-11-04T02:00:19;1.10;;;0.97;;
2956;SDS011;1488;51.548;7.222;2022-11-04T02:02:51;1.10;;;0.90;;
2956;SDS011;1488;51.548;7.222;2022-11-04T02:05:22;1.20;;;1.00;;
2956;SDS011;1488;51.548;7.222;2022-11-04T02:07:49;1.10;;;0.93;;
2956;SDS011;1488;51.548;7.222;2022-11-04T02:10:19;1.20;;;1.00;;
2956;SDS011;1488;51.548;7.222;2022-11-04T02:12:51;1.13;;;0.90;;
2956;SDS011;1488;51.548;7.222;2022-11-04T02:15:19;1.30;;;1.00;;
2956;SDS011;1488;51.548;7.222;2022-11-04T02:18:14;1.10;;;1.00;;
2956;SDS011;1488;51.548;7.222;2022-11-04T02:24:13;1.20;;;0.80;;
2956;SDS011;1488;51.548;7.222;2022-11-04T02:27:02;1.57;;;0.90;;
2956;SDS011;1488;51.548;7.222;2022-11-04T02:32:45;1.10;;;0.90;;
2956;SDS011;1488;51.548;7.222;2022-11-04T02:35:28;1.10;;;0.80;;
2956;SDS011;1488;51.548;7.222;2022-11-04T02:38:07;1.10;;;0.90;;
2956;SDS011;1488;51.548;7.222;2022-11-04T02:40:40;1.07;;;0.97;;
2956;SDS011;1488;51.548;7.222;2022-11-04T02:43:11;1.00;;;0.80;;
2956;SDS011;1488;51.548;7.222;2022-11-04T02:45:47;1.00;;;0.80;;
2956;SDS011;1488;51.548;7.222;2022-11-04T02:48:18;1.20;;;0.80;;
2956;SDS011;1488;51.548;7.222;2022-11-04T02:50:50;1.00;;;0.80;;
2956;SDS011;1488;51.548;7.222;2022-11-04T02:53:21;1.10;;;0.93;;
2956;SDS011;1488;51.548;7.222;2022-11-04T02:55:55;1.03;;;0.77;;
2956;SDS011;1488;51.548;7.222;2022-11-04T02:58:24;1.00;;;0.90;;
2956;SDS011;1488;51.548;7.222;2022-11-04T03:00:56;1.10;;;0.80;;
2956;SDS011;1488;51.548;7.222;2022-11-04T03:03:26;1.00;;;0.80;;
2956;SDS011;1488;51.548;7.222;2022-11-04T03:05:56;1.07;;;0.80;;
2956;SDS011;1488;51.548;7.222;2022-11-04T03:08:28;1.17;;;0.90;;
2956;SDS011;1488;51.548;7.222;2022-11-04T03:10:57;1.00;;;0.70;;
2956;SDS011;1488;51.548;7.222;2022-11-04T03:13:31;1.27;;;1.07;;
2956;SDS011;1488;51.548;7.222;2022-11-04T03:16:04;1.10;;;0.90;;
2956;SDS011;1488;51.548;7.222;2022-11-04T03:18:37;1.00;;;0.80;;
2956;SDS011;1488;51.548;7.222;2022-11-04T03:21:12;1.10;;;0.73;;
2956;SDS011;1488;51.548;7.222;2022-11-04T03:23:40;0.93;;;0.67;;
2956;SDS011;1488;51.548;7.222;2022-11-04T03:26:10;1.10;;;0.90;;
2956;SDS011;1488;51.548;7.222;2022-11-04T03:28:41;1.00;;;0.80;;
2956;SDS011;1488;51.548;7.222;2022-11-04T03:31:16;1.10;;;0.80;;
2956;SDS011;1488;51.548;7.222;2022-11-04T03:33:48;1.00;;;0.70;;
2956;SDS011;1488;51.548;7.222;2022-11-04T03:36:17;2.00;;;0.80;;
2956;SDS011;1488;51.548;7.222;2022-11-04T03:38:44;1.00;;;0.70;;
2956;SDS011;1488;51.548;7.222;2022-11-04T03:41:12;1.00;;;0.80;;
2956;SDS011;1488;51.548;7.222;2022-11-04T03:43:43;1.00;;;0.80;;
2956;SDS011;1488;51.548;7.222;2022-11-04T03:46:10;1.03;;;0.90;;
2956;SDS011;1488;51.548;7.222;2022-11-04T03:48:39;1.00;;;0.80;;
2956;SDS011;1488;51.548;7.222;2022-11-04T03:51:09;1.00;;;0.90;;
2956;SDS011;1488;51.548;7.222;2022-11-04T03:53:35;0.93;;;0.70;;
2956;SDS011;1488;51.548;7.222;2022-11-04T03:56:06;0.90;;;0.70;;
2956;SDS011;1488;51.548;7.222;2022-11-04T03:58:47;1.20;;;0.90;;
2956;SDS011;1488;51.548;7.222;2022-11-04T04:01:25;1.03;;;0.87;;
2956;SDS011;1488;51.548;7.222;2022-11-04T04:04:02;1.20;;;0.80;;
2956;SDS011;1488;51.548;7.222;2022-11-04T04:06:37;1.00;;;0.80;;
2956;SDS011;1488;51.548;7.222;2022-11-04T04:09:08;1.00;;;0.80;;
2956;SDS011;1488;51.548;7.222;2022-11-04T04:11:44;1.00;;;0.80;;
2956;SDS011;1488;51.548;7.222;2022-11-04T04:14:18;0.97;;;0.70;;
2956;SDS011;1488;51.548;7.222;2022-11-04T04:17:18;1.00;;;0.80;;
2956;SDS011;1488;51.548;7.222;2022-11-04T04:19:50;1.00;;;0.70;;
2956;SDS011;1488;51.548;7.222;2022-11-04T04:22:20;1.00;;;0.83;;
2956;SDS011;1488;51.548;7.222;2022-11-04T04:24:50;1.50;;;0.70;;
2956;SDS011;1488;51.548;7.222;2022-11-04T04:27:37;1.00;;;0.73;;
2956;SDS011;1488;51.548;7.222;2022-11-04T04:30:06;0.90;;;0.70;;
2956;SDS011;1488;51.548;7.222;2022-11-04T04:32:37;1.00;;;0.80;;
2956;SDS011;1488;51.548;7.222;2022-11-04T04:35:07;1.00;;;0.70;;
2956;SDS011;1488;51.548;7.222;2022-11-04T04:37:52;1.07;;;0.90;;
2956;SDS011;1488;51.548;7.222;2022-11-04T04:40:43;1.27;;;0.90;;
2956;SDS011;1488;51.548;7.222;2022-11-04T04:43:32;1.00;;;0.77;;
2956;SDS011;1488;51.548;7.222;2022-11-04T04:46:19;1.20;;;0.93;;
2956;SDS011;1488;51.548;7.222;2022-11-04T04:48:48;1.00;;;0.80;;
2956;SDS011;1488;51.548;7.222;2022-11-04T04:51:15;1.00;;;0.90;;
2956;SDS011;1488;51.548;7.222;2022-11-04T04:53:43;1.00;;;0.80;;
2956;SDS011;1488;51.548;7.222;2022-11-04T04:56:09;1.67;;;0.97;;
2956;SDS011;1488;51.548;7.222;2022-11-04T04:58:36;1.00;;;0.83;;
2956;SDS011;1488;51.548;7.222;2022-11-04T05:01:03;0.97;;;0.77;;
2956;SDS011;1488;51.548;7.222;2022-11-04T05:03:30;0.90;;;0.70;;
2956;SDS011;1488;51.548;7.222;2022-11-04T05:05:59;0.97;;;0.70;;
2956;SDS011;1488;51.548;7.222;2022-11-04T05:08:26;1.07;;;0.70;;
2956;SDS011;1488;51.548;7.222;2022-11-04T05:10:52;0.93;;;0.80;;
2956;SDS011;1488;51.548;7.222;2022-11-04T05:13:19;0.90;;;0.70;;
2956;SDS011;1488;51.548;7.222;2022-11-04T05:15:53;0.97;;;0.70;;
2956;SDS011;1488;51.548;7.222;2022-11-04T05:18:21;0.90;;;0.70;;
2956;SDS011;1488;51.548;7.222;2022-11-04T05:20:48;1.00;;;0.87;;
2956;SDS011;1488;51.548;7.222;2022-11-04T05:23:16;1.00;;;0.70;;
2956;SDS011;1488;51.548;7.222;2022-11-04T05:25:43;3.80;;;1.10;;
2956;SDS011;1488;51.548;7.222;2022-11-04T05:28:10;0.97;;;0.70;;
2956;SDS011;1488;51.548;7.222;2022-11-04T05:30:37;0.90;;;0.70;;
2956;SDS011;1488;51.548;7.222;2022-11-04T05:33:04;0.90;;;0.70;;
2956;SDS011;1488;51.548;7.222;2022-11-04T05:35:31;1.10;;;0.80;;
2956;SDS011;1488;51.548;7.222;2022-11-04T05:37:58;1.00;;;0.80;;
2956;SDS011;1488;51.548;7.222;2022-11-04T05:40:26;1.00;;;0.80;;
2956;SDS011;1488;51.548;7.222;2022-11-04T05:42:56;0.90;;;0.70;;
2956;SDS011;1488;51.548;7.222;2022-11-04T05:45:23;2.30;;;0.70;;
2956;SDS011;1488;51.548;7.222;2022-11-04T05:47:55;1.97;;;0.73;;
2956;SDS011;1488;51.548;7.222;2022-11-04T05:50:23;1.10;;;0.90;;
2956;SDS011;1488;51.548;7.222;2022-11-04T05:52:50;1.20;;;0.83;;
2956;SDS011;1488;51.548;7.222;2022-11-04T05:55:17;1.30;;;0.80;;
2956;SDS011;1488;51.548;7.222;2022-11-04T05:57:45;1.90;;;0.90;;
2956;SDS011;1488;51.548;7.222;2022-11-04T06:00:12;1.20;;;0.90;;
2956;SDS011;1488;51.548;7.222;2022-11-04T06:02:39;1.00;;;0.70;;
2956;SDS011;1488;51.548;7.222;2022-11-04T06:05:07;2.83;;;1.00;;
2956;SDS011;1488;51.548;7.222;2022-11-04T06:07:34;1.00;;;0.70;;
2956;SDS011;1488;51.548;7.222;2022-11-04T06:10:02;1.57;;;0.80;;
2956;SDS011;1488;51.548;7.222;2022-11-04T06:12:29;1.53;;;0.93;;
2956;SDS011;1488;51.548;7.222;2022-11-04T06:14:57;1.53;;;0.80;;
2956;SDS011;1488;51.548;7.222;2022-11-04T06:17:24;1.40;;;0.80;;
2956;SDS011;1488;51.548;7.222;2022-11-04T06:19:50;1.00;;;0.80;;
2956;SDS011;1488;51.548;7.222;2022-11-04T06:22:18;1.03;;;0.70;;
2956;SDS011;1488;51.548;7.222;2022-11-04T06:24:44;1.23;;;0.90;;
2956;SDS011;1488;51.548;7.222;2022-11-04T06:27:11;5.43;;;0.80;;
2956;SDS011;1488;51.548;7.222;2022-11-04T06:29:38;1.00;;;0.80;;
2956;SDS011;1488;51.548;7.222;2022-11-04T06:32:07;1.40;;;0.80;;
2956;SDS011;1488;51.548;7.222;2022-11-04T06:34:34;1.70;;;1.17;;
2956;SDS011;1488;51.548;7.222;2022-11-04T06:37:01;1.10;;;0.90;;
2956;SDS011;1488;51.548;7.222;2022-11-04T06:39:28;2.13;;;0.87;;
2956;SDS011;1488;51.548;7.222;2022-11-04T06:41:55;1.23;;;0.80;;
2956;SDS011;1488;51.548;7.222;2022-11-04T06:44:22;1.03;;;0.93;;
2956;SDS011;1488;51.548;7.222;2022-11-04T06:46:49;1.50;;;0.80;;
2956;SDS011;1488;51.548;7.222;2022-11-04T06:49:18;1.37;;;0.80;;
2956;SDS011;1488;51.548;7.222;2022-11-04T06:51:47;1.10;;;0.80;;
2956;SDS011;1488;51.548;7.222;2022-11-04T06:54:14;1.60;;;0.83;;
2956;SDS011;1488;51.548;7.222;2022-11-04T06:56:42;1.17;;;0.73;;
2956;SDS011;1488;51.548;7.222;2022-11-04T06:59:09;1.00;;;0.80;;
2956;SDS011;1488;51.548;7.222;2022-11-04T07:01:40;1.03;;;0.80;;
2956;SDS011;1488;51.548;7.222;2022-11-04T07:04:07;1.10;;;0.77;;
2956;SDS011;1488;51.548;7.222;2022-11-04T07:06:36;1.77;;;1.03;;
2956;SDS011;1488;51.548;7.222;2022-11-04T07:09:05;1.53;;;0.80;;
2956;SDS011;1488;51.548;7.222;2022-11-04T07:11:33;1.57;;;0.90;;
2956;SDS011;1488;51.548;7.222;2022-11-04T07:14:00;1.10;;;0.80;;
2956;SDS011;1488;51.548;7.222;2022-11-04T07:16:27;1.10;;;0.93;;
2956;SDS011;1488;51.548;7.222;2022-11-04T07:18:54;1.00;;;0.70;;
2956;SDS011;1488;51.548;7.222;2022-11-04T07:21:21;1.17;;;0.97;;
2956;SDS011;1488;51.548;7.222;2022-11-04T07:23:49;1.00;;;0.70;;
2956;SDS011;1488;51.548;7.222;2022-11-04T07:26:16;1.13;;;0.83;;
2956;SDS011;1488;51.548;7.222;2022-11-04T07:28:43;1.27;;;0.90;;
2956;SDS011;1488;51.548;7.222;2022-11-04T07:31:10;1.40;;;1.00;;
2956;SDS011;1488;51.548;7.222;2022-11-04T07:33:38;2.60;;;1.40;;
2956;SDS011;1488;51.548;7.222;2022-11-04T07:36:06;1.33;;;0.90;;
2956;SDS011;1488;51.548;7.222;2022-11-04T07:38:35;2.00;;;1.00;;
2956;SDS011;1488;51.548;7.222;2022-11-04T07:41:03;1.10;;;0.87;;
2956;SDS011;1488;51.548;7.222;2022-11-04T07:43:33;1.50;;;1.00;;
2956;SDS011;1488;51.548;7.222;2022-11-04T07:46:00;2.47;;;1.00;;
2956;SDS011;1488;51.548;7.222;2022-11-04T07:48:29;1.43;;;0.97;;
2956;SDS011;1488;51.548;7.222;2022-11-04T07:50:56;1.27;;;0.90;;
2956;SDS011;1488;51.548;7.222;2022-11-04T07:53:23;1.30;;;1.00;;
2956;SDS011;1488;51.548;7.222;2022-11-04T07:55:54;1.30;;;1.00;;
2956;SDS011;1488;51.548;7.222;2022-11-04T07:58:23;1.60;;;1.00;;
2956;SDS011;1488;51.548;7.222;2022-11-04T08:00:50;1.30;;;1.00;;
2956;SDS011;1488;51.548;7.222;2022-11-04T08:03:23;1.20;;;0.80;;
2956;SDS011;1488;51.548;7.222;2022-11-04T08:05:53;1.10;;;0.90;;
2956;SDS011;1488;51.548;7.222;2022-11-04T08:08:20;1.27;;;0.80;;
2956;SDS011;1488;51.548;7.222;2022-11-04T08:10:50;4.27;;;1.37;;
2956;SDS011;1488;51.548;7.222;2022-11-04T08:13:18;2.87;;;1.30;;
2956;SDS011;1488;51.548;7.222;2022-11-04T08:15:46;2.00;;;1.33;;
2956;SDS011;1488;51.548;7.222;2022-11-04T08:18:12;1.23;;;1.00;;
2956;SDS011;1488;51.548;7.222;2022-11-04T08:20:39;1.30;;;1.20;;
2956;SDS011;1488;51.548;7.222;2022-11-04T08:23:11;1.60;;;1.00;;
2956;SDS011;1488;51.548;7.222;2022-11-04T08:25:38;3.10;;;1.00;;
2956;SDS011;1488;51.548;7.222;2022-11-04T08:28:05;2.97;;;2.03;;
2956;SDS011;1488;51.548;7.222;2022-11-04T08:30:32;1.90;;;1.20;;
2956;SDS011;1488;51.548;7.222;2022-11-04T08:33:00;2.30;;;1.30;;
2956;SDS011;1488;51.548;7.222;2022-11-04T08:35:27;1.40;;;1.10;;
2956;SDS011;1488;51.548;7.222;2022-11-04T08:37:55;3.57;;;1.33;;
2956;SDS011;1488;51.548;7.222;2022-11-04T08:40:22;4.40;;;2.07;;
2956;SDS011;1488;51.548;7.222;2022-11-04T08:42:49;1.90;;;1.30;;
2956;SDS011;1488;51.548;7.222;2022-11-04T08:45:16;3.00;;;1.13;;
2956;SDS011;1488;51.548;7.222;2022-11-04T08:47:43;3.70;;;1.53;;
2956;SDS011;1488;51.548;7.222;2022-11-04T08:50:11;3.70;;;1.67;;
2956;SDS011;1488;51.548;7.222;2022-11-04T08:52:38;1.70;;;1.50;;
2956;SDS011;1488;51.548;7.222;2022-11-04T08:55:05;2.03;;;1.20;;
2956;SDS011;1488;51.548;7.222;2022-11-04T08:57:32;4.00;;;1.30;;
2956;SDS011;1488;51.548;7.222;2022-11-04T08:59:59;2.90;;;1.40;;
2956;SDS011;1488;51.548;7.222;2022-11-04T09:02:26;3.60;;;1.30;;
2956;SDS011;1488;51.548;7.222;2022-11-04T09:04:53;5.47;;;1.70;;
2956;SDS011;1488;51.548;7.222;2022-11-04T09:07:21;2.17;;;1.40;;
2956;SDS011;1488;51.548;7.222;2022-11-04T09:09:48;1.20;;;1.00;;
2956;SDS011;1488;51.548;7.222;2022-11-04T09:12:14;2.63;;;1.20;;
2956;SDS011;1488;51.548;7.222;2022-11-04T09:14:41;2.13;;;1.50;;
2956;SDS011;1488;51.548;7.222;2022-11-04T09:17:08;2.20;;;1.33;;
2956;SDS011;1488;51.548;7.222;2022-11-04T09:19:34;2.63;;;1.40;;
2956;SDS011;1488;51.548;7.222;2022-11-04T09:22:01;2.40;;;1.73;;
2956;SDS011;1488;51.548;7.222;2022-11-04T09:24:29;2.00;;;1.30;;
2956;SDS011;1488;51.548;7.222;2022-11-04T09:26:56;4.80;;;1.43;;
2956;SDS011;1488;51.548;7.222;2022-11-04T09:29:23;2.47;;;1.23;;
2956;SDS011;1488;51.548;7.222;2022-11-04T09:31:52;1.77;;;1.30;;
2956;SDS011;1488;51.548;7.222;2022-11-04T09:34:20;2.47;;;1.30;;
2956;SDS011;1488;51.548;7.222;2022-11-04T09:36:47;5.00;;;1.20;;
2956;SDS011;1488;51.548;7.222;2022-11-04T09:39:15;2.60;;;1.20;;
2956;SDS011;1488;51.548;7.222;2022-11-04T09:41:50;2.83;;;1.53;;
2956;SDS011;1488;51.548;7.222;2022-11-04T09:44:25;2.33;;;1.80;;
2956;SDS011;1488;51.548;7.222;2022-11-04T09:46:56;2.97;;;1.10;;
2956;SDS011;1488;51.548;7.222;2022-11-04T09:49:26;1.97;;;1.40;;
2956;SDS011;1488;51.548;7.222;2022-11-04T09:51:59;2.10;;;1.27;;
2956;SDS011;1488;51.548;7.222;2022-11-04T09:54:32;1.43;;;1.20;;
2956;SDS011;1488;51.548;7.222;2022-11-04T09:57:08;4.77;;;1.63;;
2956;SDS011;1488;51.548;7.222;2022-11-04T09:59:41;1.90;;;1.60;;
2956;SDS011;1488;51.548;7.222;2022-11-04T10:02:17;1.83;;;1.20;;
2956;SDS011;1488;51.548;7.222;2022-11-04T10:04:56;3.33;;;1.20;;
2956;SDS011;1488;51.548;7.222;2022-11-04T10:07:34;4.70;;;1.27;;
2956;SDS011;1488;51.548;7.222;2022-11-04T10:10:11;2.90;;;1.50;;
2956;SDS011;1488;51.548;7.222;2022-11-04T10:12:48;1.60;;;1.37;;
2956;SDS011;1488;51.548;7.222;2022-11-04T10:18:44;2.13;;;1.33;;
2956;SDS011;1488;51.548;7.222;2022-11-04T10:21:32;1.27;;;1.00;;
2956;SDS011;1488;51.548;7.222;2022-11-04T10:24:06;1.93;;;1.23;;
2956;SDS011;1488;51.548;7.222;2022-11-04T10:26:43;2.80;;;1.77;;
2956;SDS011;1488;51.548;7.222;2022-11-04T10:29:13;2.07;;;1.20;;
2956;SDS011;1488;51.548;7.222;2022-11-04T10:31:42;3.17;;;1.73;;
2956;SDS011;1488;51.548;7.222;2022-11-04T10:34:12;2.00;;;1.30;;
2956;SDS011;1488;51.548;7.222;2022-11-04T10:36:48;2.70;;;1.40;;
2956;SDS011;1488;51.548;7.222;2022-11-04T10:39:19;1.60;;;1.10;;
2956;SDS011;1488;51.548;7.222;2022-11-04T10:41:53;2.40;;;1.10;;
2956;SDS011;1488;51.548;7.222;2022-11-04T10:44:24;1.60;;;1.20;;
2956;SDS011;1488;51.548;7.222;2022-11-04T10:46:57;2.43;;;1.57;;
2956;SDS011;1488;51.548;7.222;2022-11-04T10:52:25;1.43;;;1.27;;
2956;SDS011;1488;51.548;7.222;2022-11-04T10:54:51;1.90;;;1.13;;
2956;SDS011;1488;51.548;7.222;2022-11-04T10:57:19;1.10;;;0.93;;
2956;SDS011;1488;51.548;7.222;2022-11-04T10:59:51;2.67;;;1.50;;
2956;SDS011;1488;51.548;7.222;2022-11-04T11:05:20;2.60;;;2.20;;
2956;SDS011;1488;51.548;7.222;2022-11-04T11:07:49;1.77;;;1.10;;
2956;SDS011;1488;51.548;7.222;2022-11-04T11:10:18;1.47;;;1.17;;
2956;SDS011;1488;51.548;7.222;2022-11-04T11:12:54;1.83;;;1.17;;
2956;SDS011;1488;51.548;7.222;2022-11-04T11:15:31;1.70;;;1.10;;
2956;SDS011;1488;51.548;7.222;2022-11-04T11:18:10;1.73;;;1.00;;
2956;SDS011;1488;51.548;7.222;2022-11-04T11:20:39;1.60;;;1.10;;
2956;SDS011;1488;51.548;7.222;2022-11-04T11:23:31;1.83;;;1.10;;
2956;SDS011;1488;51.548;7.222;2022-11-04T11:26:00;2.00;;;1.03;;
2956;SDS011;1488;51.548;7.222;2022-11-04T11:28:28;3.77;;;1.23;;
2956;SDS011;1488;51.548;7.222;2022-11-04T11:31:03;1.20;;;1.10;;
2956;SDS011;1488;51.548;7.222;2022-11-04T11:33:44;2.60;;;1.33;;
2956;SDS011;1488;51.548;7.222;2022-11-04T11:36:16;3.17;;;1.50;;
2956;SDS011;1488;51.548;7.222;2022-11-04T11:38:54;1.60;;;0.90;;
2956;SDS011;1488;51.548;7.222;2022-11-04T11:41:25;2.90;;;1.20;;
2956;SDS011;1488;51.548;7.222;2022-11-04T11:44:00;1.80;;;0.97;;
2956;SDS011;1488;51.548;7.222;2022-11-04T11:46:31;1.77;;;1.03;;
2956;SDS011;1488;51.548;7.222;2022-11-04T11:49:03;2.53;;;1.00;;
2956;SDS011;1488;51.548;7.222;2022-11-04T11:51:31;2.83;;;1.10;;
2956;SDS011;1488;51.548;7.222;2022-11-04T11:54:07;2.30;;;1.33;;
2956;SDS011;1488;51.548;7.222;2022-11-04T11:56:41;2.03;;;1.30;;
2956;SDS011;1488;51.548;7.222;2022-11-04T11:59:16;5.63;;;1.40;;
2956;SDS011;1488;51.548;7.222;2022-11-04T12:04:48;1.93;;;1.27;;
2956;SDS011;1488;51.548;7.222;2022-11-04T12:07:17;1.83;;;1.07;;
2956;SDS011;1488;51.548;7.222;2022-11-04T12:09:52;1.50;;;1.00;;
2956;SDS011;1488;51.548;7.222;2022-11-04T12:12:29;1.60;;;1.20;;
2956;SDS011;1488;51.548;7.222;2022-11-04T12:15:12;1.10;;;1.00;;
2956;SDS011;1488;51.548;7.222;2022-11-04T12:17:55;3.37;;;1.50;;
2956;SDS011;1488;51.548;7.222;2022-11-04T12:20:34;3.10;;;1.30;;
2956;SDS011;1488;51.548;7.222;2022-11-04T12:23:12;1.30;;;0.90;;
2956;SDS011;1488;51.548;7.222;2022-11-04T12:25:47;1.60;;;1.07;;
2956;SDS011;1488;51.548;7.222;2022-11-04T12:28:26;1.20;;;1.10;;
2956;SDS011;1488;51.548;7.222;2022-11-04T12:31:07;1.27;;;1.00;;
2956;SDS011;1488;51.548;7.222;2022-11-04T12:33:44;1.30;;;1.10;;
2956;SDS011;1488;51.548;7.222;2022-11-04T12:36:23;1.00;;;0.80;;
2956;SDS011;1488;51.548;7.222;2022-11-04T12:39:03;2.10;;;1.00;;
2956;SDS011;1488;51.548;7.222;2022-11-04T12:41:45;1.80;;;1.10;;
2956;SDS011;1488;51.548;7.222;2022-11-04T12:44:23;1.63;;;1.10;;
2956;SDS011;1488;51.548;7.222;2022-11-04T12:46:56;2.13;;;1.03;;
2956;SDS011;1488;51.548;7.222;2022-11-04T12:49:41;1.50;;;1.13;;
2956;SDS011;1488;51.548;7.222;2022-11-04T12:52:22;3.00;;;1.20;;
2956;SDS011;1488;51.548;7.222;2022-11-04T12:55:05;1.30;;;1.00;;
2956;SDS011;1488;51.548;7.222;2022-11-04T12:57:49;2.70;;;1.30;;
2956;SDS011;1488;51.548;7.222;2022-11-04T13:00:24;1.20;;;1.00;;
2956;SDS011;1488;51.548;7.222;2022-11-04T13:02:55;2.00;;;1.00;;
2956;SDS011;1488;51.548;7.222;2022-11-04T13:05:29;2.50;;;1.33;;
2956;SDS011;1488;51.548;7.222;2022-11-04T13:08:08;2.87;;;1.63;;
2956;SDS011;1488;51.548;7.222;2022-11-04T13:10:41;2.23;;;1.47;;
2956;SDS011;1488;51.548;7.222;2022-11-04T13:13:11;1.43;;;0.90;;
2956;SDS011;1488;51.548;7.222;2022-11-04T13:15:42;1.40;;;1.30;;
2956;SDS011;1488;51.548;7.222;2022-11-04T13:18:14;2.70;;;1.20;;
2956;SDS011;1488;51.548;7.222;2022-11-04T13:20:47;2.63;;;1.30;;
2956;SDS011;1488;51.548;7.222;2022-11-04T13:23:19;1.40;;;1.10;;
2956;SDS011;1488;51.548;7.222;2022-11-04T13:25:52;1.20;;;1.00;;
2956;SDS011;1488;51.548;7.222;2022-11-04T13:28:22;1.30;;;1.10;;
2956;SDS011;1488;51.548;7.222;2022-11-04T13:30:51;2.03;;;1.17;;
2956;SDS011;1488;51.548;7.222;2022-11-04T13:33:28;1.60;;;1.20;;
2956;SDS011;1488;51.548;7.222;2022-11-04T13:36:04;1.30;;;1.00;;
2956;SDS011;1488;51.548;7.222;2022-11-04T13:38:38;2.17;;;1.17;;
2956;SDS011;1488;51.548;7.222;2022-11-04T13:41:16;3.10;;;1.33;;
2956;SDS011;1488;51.548;7.222;2022-11-04T13:44:13;5.27;;;1.60;;
2956;SDS011;1488;51.548;7.222;2022-11-04T13:46:45;3.10;;;1.60;;
2956;SDS011;1488;51.548;7.222;2022-11-04T13:49:17;1.90;;;1.20;;
2956;SDS011;1488;51.548;7.222;2022-11-04T13:51:59;3.30;;;1.20;;
2956;SDS011;1488;51.548;7.222;2022-11-04T13:54:32;2.27;;;1.37;;
2956;SDS011;1488;51.548;7.222;2022-11-04T13:57:05;3.67;;;1.53;;
2956;SDS011;1488;51.548;7.222;2022-11-04T13:59:37;5.10;;;1.53;;
2956;SDS011;1488;51.548;7.222;2022-11-04T14:02:21;3.87;;;1.60;;
2956;SDS011;1488;51.548;7.222;2022-11-04T14:08:10;1.20;;;1.00;;
2956;SDS011;1488;51.548;7.222;2022-11-04T14:13:45;3.00;;;1.17;;
2956;SDS011;1488;51.548;7.222;2022-11-04T14:16:43;3.40;;;1.40;;
2956;SDS011;1488;51.548;7.222;2022-11-04T14:22:20;1.97;;;1.20;;
2956;SDS011;1488;51.548;7.222;2022-11-04T14:24:59;2.03;;;1.10;;
2956;SDS011;1488;51.548;7.222;2022-11-04T14:27:33;2.53;;;1.43;;
2956;SDS011;1488;51.548;7.222;2022-11-04T14:30:05;4.33;;;1.50;;
2956;SDS011;1488;51.548;7.222;2022-11-04T14:35:17;1.43;;;0.90;;
2956;SDS011;1488;51.548;7.222;2022-11-04T14:37:44;1.60;;;1.20;;
2956;SDS011;1488;51.548;7.222;2022-11-04T14:40:24;3.50;;;1.30;;
2956;SDS011;1488;51.548;7.222;2022-11-04T14:42:52;3.80;;;1.13;;
2956;SDS011;1488;51.548;7.222;2022-11-04T14:45:21;1.93;;;1.17;;
2956;SDS011;1488;51.548;7.222;2022-11-04T14:47:51;2.33;;;1.53;;
2956;SDS011;1488;51.548;7.222;2022-11-04T14:50:20;4.60;;;1.20;;
2956;SDS011;1488;51.548;7.222;2022-11-04T14:52:51;2.03;;;1.43;;
2956;SDS011;1488;51.548;7.222;2022-11-04T14:55:22;2.07;;;1.40;;
2956;SDS011;1488;51.548;7.222;2022-11-04T14:57:55;1.60;;;1.43;;
2956;SDS011;1488;51.548;7.222;2022-11-04T15:00:26;3.00;;;1.47;;
2956;SDS011;1488;51.548;7.222;2022-11-04T15:03:05;4.93;;;1.40;;
2956;SDS011;1488;51.548;7.222;2022-11-04T15:08:30;1.67;;;1.10;;
2956;SDS011;1488;51.548;7.222;2022-11-04T15:11:50;4.47;;;1.30;;
2956;SDS011;1488;51.548;7.222;2022-11-04T15:14:42;2.47;;;1.53;;
2956;SDS011;1488;51.548;7.222;2022-11-04T15:17:09;5.10;;;1.53;;
2956;SDS011;1488;51.548;7.222;2022-11-04T15:19:46;1.47;;;1.30;;
2956;SDS011;1488;51.548;7.222;2022-11-04T15:22:15;1.50;;;1.00;;
2956;SDS011;1488;51.548;7.222;2022-11-04T15:30:45;1.43;;;1.20;;
2956;SDS011;1488;51.548;7.222;2022-11-04T15:33:33;1.13;;;1.00;;
2956;SDS011;1488;51.548;7.222;2022-11-04T15:36:04;2.10;;;1.47;;
2956;SDS011;1488;51.548;7.222;2022-11-04T15:38:34;1.43;;;1.33;;
2956;SDS011;1488;51.548;7.222;2022-11-04T15:41:03;1.20;;;1.10;;
2956;SDS011;1488;51.548;7.222;2022-11-04T15:43:44;1.50;;;1.27;;
2956;SDS011;1488;51.548;7.222;2022-11-04T15:46:26;2.30;;;1.57;;
2956;SDS011;1488;51.548;7.222;2022-11-04T15:49:01;1.23;;;1.10;;
2956;SDS011;1488;51.548;7.222;2022-11-04T15:51:34;2.27;;;1.50;;
2956;SDS011;1488;51.548;7.222;2022-11-04T15:54:04;1.63;;;1.30;;
2956;SDS011;1488;51.548;7.222;2022-11-04T16:00:00;2.13;;;1.60;;
2956;SDS011;1488;51.548;7.222;2022-11-04T16:02:34;2.73;;;1.30;;
2956;SDS011;1488;51.548;7.222;2022-11-04T16:05:05;3.43;;;2.00;;
2956;SDS011;1488;51.548;7.222;2022-11-04T16:07:42;7.03;;;1.93;;
2956;SDS011;1488;51.548;7.222;2022-11-04T16:10:23;3.30;;;1.43;;
2956;SDS011;1488;51.548;7.222;2022-11-04T16:12:53;3.73;;;1.40;;
2956;SDS011;1488;51.548;7.222;2022-11-04T16:15:34;2.60;;;1.10;;
2956;SDS011;1488;51.548;7.222;2022-11-04T16:18:05;1.60;;;1.40;;
2956;SDS011;1488;51.548;7.222;2022-11-04T16:20:48;3.90;;;1.30;;
2956;SDS011;1488;51.548;7.222;2022-11-04T16:23:17;6.07;;;1.60;;
2956;SDS011;1488;51.548;7.222;2022-11-04T16:25:46;3.33;;;1.20;;
2956;SDS011;1488;51.548;7.222;2022-11-04T16:28:23;2.90;;;1.20;;